Merry Point, VA (22513)

7:37 PM EST on December 24, 2014 (GMT -0500)
Drum Point | Change Station
CLOSE
Current Station
Personal Weather Station
Location: Lancaster, VA
Elevation: 30 ft
Nearby Weather Stations

Elev 30 ft 37.73 °N, 76.51 °W | Updated 23 seconds ago

Overcast
Overcast
62.0 °F
Feels Like 62.0 °F
N
6.0
Wind Variable Wind from South
Gusts 7.0 mph

Today
High -- | Low -- °F
--% Chance of Precip.
Yesterday
High -- | Low -- °F
Precip. -- in
7:18 AM 4:52 PM
Waxing Crescent, 12% visible
Pressure 29.66 in
Visibility 10.0 miles
Clouds Scattered Clouds 12000 ft
Dew Point 61 °F
Humidity 98%
Rainfall 0.74 in
Snow Depth Not available.
UV 0 out of 12
Pollen .10 out of 12
Air Quality Not available.
Flu Activity Not available.
METAR KFYJ 250015Z AUTO 15007KT 10SM SCT120 18/17 A2966 RMK AO2 T01780167

More Conditions Fewer Conditions

Pressure 29.66 in
Visibility 10.0 miles
Clouds Scattered Clouds 12000 ft
Dew Point 61 °F
Humidity 98%
Rainfall 0.74 in
Snow Depth Not available.
UV 0 out of 12
Pollen .10 out of 12
Air Quality Not available.
Flu Activity Not available.
METAR KFYJ 250015Z AUTO 15007KT 10SM SCT120 18/17 A2966 RMK AO2 T01780167

More Conditions Fewer Conditions

10-Day Weather Forecast

Almanac

Astronomy

Dec. 24, 2014 Rise Set
Actual Time
Civil Twilight
Nautical Twilight
Astronomical Twilight
Moon
Length of Visible Light
Length of Day
Tomorrow will be .
, % of the Moon is Illuminated

Today's Extremes

State Highs State Lows

Community

WunderPhotos

Upload Photos

1,780,194 photos uploaded!

WunderBlogs® & News

Nearby

Air Quality

  Air Quality AQ Index Pollutant
Not available.

Snow Depth

Station Depth Elevation

Earthquake Activity

City Distance Mag. Time & Date
Minimum magnitude displayed is 2.5.

Coastal Water Temperatures

Place Temperature

Nearby Weather Stations